Meishomaru — JD3044 — position and weather

sailwx.info

Track history (hours):
 
Tides and Currents Weather Stations Pressure Air Temp Water Temp Dewpoint Dewpoint Depression Visibility Wind Speed Wind Dir Waves Ship Positions

Meishomaru

Last reported at 2017-Mar-29 07:33 UTC. Time now 2017-Mar-30 04:44 UTC.
Position N 35°18' E 139°44'.

Length 68 m; draft 4 m.

Type: Tanker. MMSI: 431001216.

Date/timePositionNaut miles runAvg speedWind from/ knotsBaromVisibWave heightAir tempDewpointWater temp
2017-Mar-29 07:33N 35°18' E 139°44'9 9.5
2017-Mar-29 06:33N 35°27' E 139°47'7 0.9
2017-Mar-28 23:33N 35°29' E 139°55'0 0.0
2017-Mar-28 20:23N 35°29' E 139°55'0 0.0
2017-Mar-28 19:29N 35°29' E 139°55'0 0.0
2017-Mar-28 18:14N 35°29' E 139°55'0 0.0
2017-Mar-28 17:32N 35°29' E 139°55'0 0.0
2017-Mar-28 16:32N 35°29' E 139°55'0 0.1
2017-Mar-28 15:32N 35°29' E 139°55'0 0.0
2017-Mar-28 14:30N 35°29' E 139°55'1010.5
2017-Mar-28 13:33N 35°22' E 139°45'1110.7
2017-Mar-28 12:32N 35°11' E 139°47'24610.1
2017-Mar-27 12:19N 34°02' E 135°00'1012.4
2017-Mar-27 11:31N 34°12' E 134°59'1111.2
2017-Mar-27 10:30N 34°24' E 135°00'1011.0
2017-Mar-27 09:33N 34°34' E 135°03'236 4.5
2017-Mar-25 05:34N 35°16' E 139°46'1010.3
2017-Mar-25 04:34N 35°26' E 139°46'1211.6
2017-Mar-25 03:33N 35°31' E 139°59'3 0.8
2017-Mar-24 23:32N 35°30' E 140°02'3 2.5
2017-Mar-24 22:31N 35°30' E 139°59'3 2.6
2017-Mar-24 21:28N 35°29' E 139°56'0 0.0
2017-Mar-24 20:28N 35°29' E 139°56'0 0.0
2017-Mar-24 19:28N 35°29' E 139°56'0 0.0
2017-Mar-24 18:31N 35°29' E 139°56'0 0.0
2017-Mar-24 16:25N 35°29' E 139°56'0 0.0
2017-Mar-24 15:19N 35°29' E 139°56'0 0.0
2017-Mar-24 14:32N 35°29' E 139°56'8 7.8
2017-Mar-24 13:34N 35°25' E 139°48'1010.1
2017-Mar-24 12:33N 35°15' E 139°47'357 7.2
2017-Mar-22 11:08N 33°58' E 132°43'711.9
2017-Mar-22 10:33N 33°53' E 132°37'  
2017-Mar-19 12:28N 34°48' E 139°07'1612.0
2017-Mar-19 11:10N 34°59' E 139°22'711.5
2017-Mar-19 10:32N 35°02' E 139°30'1211.8
2017-Mar-19 09:33N 35°08' E 139°42'1110.7
2017-Mar-19 08:34N 35°18' E 139°44'1010.0
2017-Mar-19 07:33N 35°28' E 139°48'  
Track history (hours):
 
Tides and Currents Weather Stations Pressure Air Temp Water Temp Dewpoint Dewpoint Depression Visibility Wind Speed Wind Dir Waves Ship Positions

Meishomaru

Last reported at 2017-Mar-29 07:33 UTC. Time now 2017-Mar-30 04:44 UTC.
Position N 35°18' E 139°44'.

Length 68 m; draft 4 m.

Type: Tanker. MMSI: 431001216.

Date/timePositionNaut miles runAvg speedWind from/ knotsBaromVisibWave heightAir tempDewpointWater temp
2017-Mar-29 07:33N 35°18' E 139°44'9 9.5
2017-Mar-29 06:33N 35°27' E 139°47'7 0.9
2017-Mar-28 23:33N 35°29' E 139°55'0 0.0
2017-Mar-28 20:23N 35°29' E 139°55'0 0.0
2017-Mar-28 19:29N 35°29' E 139°55'0 0.0
2017-Mar-28 18:14N 35°29' E 139°55'0 0.0
2017-Mar-28 17:32N 35°29' E 139°55'0 0.0
2017-Mar-28 16:32N 35°29' E 139°55'0 0.1
2017-Mar-28 15:32N 35°29' E 139°55'0 0.0
2017-Mar-28 14:30N 35°29' E 139°55'1010.5
2017-Mar-28 13:33N 35°22' E 139°45'1110.7
2017-Mar-28 12:32N 35°11' E 139°47'24610.1
2017-Mar-27 12:19N 34°02' E 135°00'1012.4
2017-Mar-27 11:31N 34°12' E 134°59'1111.2
2017-Mar-27 10:30N 34°24' E 135°00'1011.0
2017-Mar-27 09:33N 34°34' E 135°03'236 4.5
2017-Mar-25 05:34N 35°16' E 139°46'1010.3
2017-Mar-25 04:34N 35°26' E 139°46'1211.6
2017-Mar-25 03:33N 35°31' E 139°59'3 0.8
2017-Mar-24 23:32N 35°30' E 140°02'3 2.5
2017-Mar-24 22:31N 35°30' E 139°59'3 2.6
2017-Mar-24 21:28N 35°29' E 139°56'0 0.0
2017-Mar-24 20:28N 35°29' E 139°56'0 0.0
2017-Mar-24 19:28N 35°29' E 139°56'0 0.0
2017-Mar-24 18:31N 35°29' E 139°56'0 0.0
2017-Mar-24 16:25N 35°29' E 139°56'0 0.0
2017-Mar-24 15:19N 35°29' E 139°56'0 0.0
2017-Mar-24 14:32N 35°29' E 139°56'8 7.8
2017-Mar-24 13:34N 35°25' E 139°48'1010.1
2017-Mar-24 12:33N 35°15' E 139°47'357 7.2
2017-Mar-22 11:08N 33°58' E 132°43'711.9
2017-Mar-22 10:33N 33°53' E 132°37'  
2017-Mar-19 12:28N 34°48' E 139°07'1612.0
2017-Mar-19 11:10N 34°59' E 139°22'711.5
2017-Mar-19 10:32N 35°02' E 139°30'1211.8
2017-Mar-19 09:33N 35°08' E 139°42'1110.7
2017-Mar-19 08:34N 35°18' E 139°44'1010.0
2017-Mar-19 07:33N 35°28' E 139°48'  

Dump ship's entire track history